11 agosto 2022

Tempo Codice Tempo metereologico Temp. Vista Base nuvolosa Vento METAR/SPECI
18:25
V
31 °C 10 km+ - 050° 050° 8 kt METAR EHVK 111625Z AUTO 05008KT 020V080 9999 NCD 31/06 Q1019 BLU
17:55
V
31 °C 10 km+ - 080° 080° 8 kt METAR EHVK 111555Z AUTO 08008KT 030V120 9999 NCD 31/06 Q1019 BLU
17:25
V
31 °C 10 km+ - 060° 060° 9 kt METAR EHVK 111525Z AUTO 06009KT 340V090 9999 NCD 31/06 Q1019 BLU
16:55
V
32 °C 10 km+ - 070° 070° 7 kt METAR EHVK 111455Z AUTO 07007KT 030V120 9999 NCD 32/06 Q1020 BLU
16:25
V
31 °C 10 km+ - 090° 090° 6 kt METAR EHVK 111425Z AUTO 09006KT 010V140 9999 NCD 31/06 Q1020 BLU
15:55
V
31 °C 10 km+ - 050° 050° 6 kt METAR EHVK 111355Z AUTO 05006KT 350V100 9999 NCD 31/05 Q1020 BLU NOSIG
14:55
V
31 °C 10 km+ - 080° 080° 8 kt METAR EHVK 111255Z AUTO 08008KT 060V180 9999 NCD 31/06 Q1021 BLU NOSIG
14:25
V
30 °C 10 km+ - 090° 090° 7 kt METAR EHVK 111225Z AUTO 09007KT 060V190 9999 NCD 30/07 Q1021 BLU NOSIG
13:55
V
30 °C 10 km+ - 080° 080° 7 kt METAR EHVK 111155Z AUTO 08007KT 050V160 9999 NCD 30/07 Q1021 BLU NOSIG
13:25
V
30 °C 10 km+ - 100° 100° 9 kt METAR EHVK 111125Z AUTO 10009KT 050V160 9999 NCD 30/07 Q1021 BLU NOSIG
12:55
V
30 °C 10 km+ - 080° 080° 8 kt METAR EHVK 111055Z AUTO 08008KT 050V150 9999 NCD 30/09 Q1022 BLU NOSIG
12:25
V
29 °C 10 km+ - 090° 090° 8 kt METAR EHVK 111025Z AUTO 09008KT 020V150 9999 NCD 29/09 Q1022 BLU NOSIG
11:55
V
28 °C 10 km+ - 090° 090° 6 kt METAR EHVK 110955Z AUTO 09006KT 030V140 9999 NCD 28/10 Q1022 BLU NOSIG
11:33
V
27 °C 10 km+ - 090° 090° 6 kt METAR EHVK 110933Z AUTO 09006KT 040V150 9999 NCD 27/10 Q1022 BLU NOSIG
11:25
V
27 °C 10 km+ - 090° 090° 4 kt METAR EHVK 110925Z AUTO 09004KT 060V180 9999 NCD 27/10 Q1022 BLU NOSIG
10:55
V
26 °C 10 km+ - 100° 100° 5 kt METAR EHVK 110855Z AUTO 10005KT 050V160 9999 NCD 26/11 Q1022 BLU NOSIG
10:25
V
25 °C 10 km+ - 100° 100° 5 kt METAR EHVK 110825Z AUTO 10005KT 060V150 9999 NCD 25/11 Q1022 BLU NOSIG
09:55
V
24 °C 10 km+ - 090° 090° 7 kt METAR EHVK 110755Z AUTO 09007KT 050V130 9999 NCD 24/11 Q1022 BLU NOSIG
09:25
V
23 °C 10 km+ - 080° 080° 6 kt METAR EHVK 110725Z AUTO 08006KT 030V110 9999 NCD 23/11 Q1022 BLU NOSIG
08:55
V
21 °C 10 km+ - 060° 060° 6 kt METAR EHVK 110655Z AUTO 06006KT 030V090 9999 NCD 21/12 Q1022 BLU NOSIG
08:25
V
20 °C 10 km+ - 060° 060° 5 kt METAR EHVK 110625Z AUTO 06005KT 9999 NCD 20/12 Q1022 BLU NOSIG
07:55
V
18 °C 10 km+ - 060° 060° 5 kt METAR EHVK 110555Z AUTO 06005KT 040V100 9999 NCD 18/12 Q1022 BLU
07:25
V
17 °C 10 km+ - 050° 050° 3 kt METAR EHVK 110525Z AUTO 05003KT 020V080 9999 NCD 17/12 Q1022 BLU
06:55
V
15 °C 10 km+ - 040° 040° 3 kt METAR EHVK 110455Z AUTO 04003KT 9999 NCD 15/11 Q1022 BLU
06:25
V
16 °C 10 km+ - 030° 030° 3 kt METAR EHVK 110425Z AUTO 03003KT 9999 NCD 16/11 Q1022 BLU
05:55
V
15 °C 10 km+ - 050° 050° 3 kt METAR EHVK 110355Z AUTO 05003KT 9999 NCD 15/11 Q1022 BLU
05:25
V
17 °C 10 km+ - 040° 040° 4 kt METAR EHVK 110325Z AUTO 04004KT 9999 NCD 17/11 Q1022 BLU
04:55
V
16 °C 10 km+ - 050° 050° 4 kt METAR EHVK 110255Z AUTO 05004KT 9999 NCD 16/11 Q1022 BLU
04:25
V
16 °C 10 km+ - 050° 050° 4 kt METAR EHVK 110225Z AUTO 05004KT 9999 NCD 16/11 Q1022 BLU
03:55
V
17 °C 10 km+ - 040° 040° 3 kt METAR EHVK 110155Z AUTO 04003KT 9999 NCD 17/11 Q1022 BLU
03:25
V
18 °C 10 km+ - 030° 030° 3 kt METAR EHVK 110125Z AUTO 03003KT 9999 NCD 18/11 Q1022 BLU
02:55
V
18 °C 10 km+ - 030° 030° 3 kt METAR EHVK 110055Z AUTO 03003KT 9999 NCD 18/11 Q1022 BLU
02:25
V
19 °C 10 km+ - 030° 030° 3 kt METAR EHVK 110025Z AUTO 03003KT 9999 NCD 19/11 Q1022 BLU RMK CB INFO NOT AVBL
01:55
V
19 °C 10 km+ - 040° 040° 4 kt METAR EHVK 102355Z AUTO 04004KT 9999 NCD 19/11 Q1022 BLU
01:25
V
18 °C 10 km+ - 040° 040° 4 kt METAR EHVK 102325Z AUTO 04004KT 9999 NCD 18/11 Q1022 BLU
00:55
V
19 °C 10 km+ - 020° 020° 3 kt METAR EHVK 102255Z AUTO 02003KT 9999 NCD 19/11 Q1022 BLU
00:25
V
18 °C 10 km+ - 010° 010° 2 kt METAR EHVK 102225Z AUTO 01002KT 9999 NCD 18/11 Q1022 BLU

10 agosto 2022

Tempo Codice Tempo metereologico Temp. Vista Base nuvolosa Vento METAR/SPECI
23:55
V
20 °C 10 km+ - 030° 030° 2 kt METAR EHVK 102155Z AUTO 03002KT 9999 NCD 20/11 Q1023 BLU
23:25
V
21 °C 10 km+ - 030° 030° 3 kt METAR EHVK 102125Z AUTO 03003KT 9999 SCT370 21/11 Q1023 BLU
22:55
V
22 °C 10 km+ - 030° 030° 3 kt METAR EHVK 102055Z AUTO 03003KT 9999 NCD 22/11 Q1023 BLU
22:25
V
23 °C 10 km+ - 030° 030° 4 kt METAR EHVK 102025Z AUTO 03004KT 9999 NCD 23/10 Q1023 BLU
21:55
V
24 °C 10 km+ - 040° 040° 5 kt METAR EHVK 101955Z AUTO 04005KT 9999 NCD 24/10 Q1022 BLU
21:25
V
25 °C 10 km+ - 040° 040° 5 kt METAR EHVK 101925Z AUTO 04005KT 9999 NCD 25/09 Q1022 BLU
20:55
V
26 °C 10 km+ - 040° 040° 6 kt METAR EHVK 101855Z AUTO 04006KT 9999 NCD 26/09 Q1022 BLU
20:25
V
28 °C 10 km+ - 050° 050° 6 kt METAR EHVK 101825Z AUTO 05006KT 9999 NCD 28/09 Q1022 BLU
19:55
V
29 °C 10 km+ - 050° 050° 8 kt METAR EHVK 101755Z AUTO 05008KT 020V080 9999 NCD 29/09 Q1022 BLU
19:25
V
29 °C 10 km+ - 060° 060° 10 kt METAR EHVK 101725Z AUTO 06010KT 020V090 9999 NCD 29/09 Q1022 BLU
18:55
V
30 °C 10 km+ - 050° 050° 9 kt METAR EHVK 101655Z AUTO 05009KT 030V100 9999 NCD 30/08 Q1022 BLU
18:25
V
30 °C 10 km+ - 050° 050° 10 kt METAR EHVK 101625Z AUTO 05010KT 360V090 9999 NCD 30/08 Q1023 BLU
17:55
V
30 °C 10 km+ 30.000 ft 040° 040° 8 kt METAR EHVK 101555Z AUTO 04008KT 360V100 9999 BKN300 30/09 Q1023 BLU
17:25
V
30 °C 10 km+ - 060° 060° 9 kt METAR EHVK 101525Z AUTO 06009KT 020V090 9999 NCD 30/07 Q1023 BLU
16:55
V
30 °C 10 km+ - 060° 060° 8 kt METAR EHVK 101455Z AUTO 06008KT 020V120 9999 NCD 30/08 Q1023 BLU
16:25
V
30 °C 10 km+ - 050° 050° 10 kt METAR EHVK 101425Z AUTO 05010KT 030V100 9999 NCD 30/08 Q1023 BLU
16:00
V
30 °C 10 km+ - 050° 050° 8 kt METAR EHVK 101400Z AUTO 05008KT 010V080 9999 NCD 30/09 Q1023 BLU
15:55
V
30 °C 10 km+ - 080° 080° 8 kt METAR EHVK 101355Z AUTO 08008KT 020V120 9999 NCD 30/09 Q1024 BLU NOSIG
15:25
V
30 °C 10 km+ - 050° 050° 9 kt METAR EHVK 101325Z AUTO 05009KT 350V100 9999 NCD 30/09 Q1024 BLU NOSIG
14:55
V
29 °C 10 km+ - Var Var 8 kt METAR EHVK 101255Z AUTO VRB08KT 9999 NCD 29/09 Q1024 BLU NOSIG
14:25
V
29 °C 10 km+ - 070° 070° 9 kt METAR EHVK 101225Z AUTO 07009KT 010V110 9999 NCD 29/11 Q1024 BLU NOSIG
13:55
V
29 °C 10 km+ - Var Var 9 kt METAR EHVK 101155Z AUTO VRB09KT 9999 SCT400 29/10 Q1025 BLU NOSIG
13:25
V
28 °C 10 km+ 39.000 ft 070° 070° 9 kt METAR EHVK 101125Z AUTO 07009KT 050V130 9999 OVC390 28/10 Q1025 BLU NOSIG
12:55
V
27 °C 10 km+ 29.000 ft 060° 060° 10 kt METAR EHVK 101055Z AUTO 06010KT 010V090 9999 BKN290 BKN380 27/11 Q1025 BLU NOSIG
12:25
V
27 °C 10 km+ 39.000 ft 060° 060° 9 kt METAR EHVK 101025Z AUTO 06009KT 010V090 9999 OVC390 27/12 Q1025 BLU NOSIG
11:55
V
26 °C 10 km+ 29.000 ft 060° 060° 8 kt METAR EHVK 100955Z AUTO 06008KT 010V090 9999 BKN290 OVC390 26/13 Q1026 BLU NOSIG
11:25
V
25 °C 10 km+ 30.000 ft 040° 040° 6 kt METAR EHVK 100925Z AUTO 04006KT 340V120 9999 OVC300 25/13 Q1026 BLU NOSIG
10:55
V
24 °C 10 km+ 41.000 ft 050° 050° 6 kt METAR EHVK 100855Z AUTO 05006KT 340V070 9999 SCT300 BKN410 24/13 Q1026 BLU NOSIG
10:25
V
23 °C 10 km+ 40.000 ft 050° 050° 6 kt METAR EHVK 100825Z AUTO 05006KT 010V090 9999 FEW330 OVC400 23/13 Q1026 BLU NOSIG
09:55
V
21 °C 10 km+ 41.000 ft 070° 070° 7 kt METAR EHVK 100755Z AUTO 07007KT 030V100 9999 BKN410 21/13 Q1026 BLU NOSIG
09:25
V
20 °C 10 km+ 32.000 ft 070° 070° 9 kt METAR EHVK 100725Z AUTO 07009KT 040V100 9999 BKN320 OVC400 20/12 Q1026 BLU NOSIG
08:55
V
19 °C 10 km+ 38.000 ft 060° 060° 7 kt METAR EHVK 100655Z AUTO 06007KT 030V090 9999 FEW310 OVC380 19/13 Q1026 BLU NOSIG
08:25
V
18 °C 10 km+ 32.000 ft 060° 060° 7 kt METAR EHVK 100625Z AUTO 06007KT 020V090 9999 BKN320 OVC410 18/13 Q1026 BLU NOSIG
08:01
V
17 °C 10 km+ - 040° 040° 5 kt METAR EHVK 100601Z AUTO 04005KT 020V080 9999 NCD 17/13 Q1026 BLU NOSIG
07:55
V
17 °C 10 km+ - 050° 050° 5 kt METAR EHVK 100555Z AUTO 05005KT 020V080 9999 FEW400 17/13 Q1026 BLU
07:25
V
16 °C 10 km+ 31.000 ft 040° 040° 4 kt METAR EHVK 100525Z AUTO 04004KT 9999 BKN310 OVC400 16/13 Q1026 BLU
06:55
V
15 °C 10 km+ 32.000 ft 030° 030° 4 kt METAR EHVK 100455Z AUTO 03004KT 360V070 9999 BKN320 15/13 Q1026 BLU
06:25
V
15 °C 10 km+ 33.000 ft 030° 030° 4 kt METAR EHVK 100425Z AUTO 03004KT 9999 OVC330 15/13 Q1026 BLU
05:55
V
15 °C 10 km+ 35.000 ft 020° 020° 5 kt METAR EHVK 100355Z AUTO 02005KT 9999 BKN350 15/12 Q1026 BLU
05:25
V
15 °C 10 km+ 36.000 ft 020° 020° 5 kt METAR EHVK 100325Z AUTO 02005KT 340V040 9999 OVC360 15/12 Q1026 BLU
04:55
V
16 °C 10 km+ 37.000 ft 020° 020° 4 kt METAR EHVK 100255Z AUTO 02004KT 9999 OVC370 16/13 Q1026 BLU
04:25
V
16 °C 10 km+ - 020° 020° 4 kt METAR EHVK 100225Z AUTO 02004KT 9999 SCT370 16/13 Q1026 BLU
03:55
V
16 °C 10 km+ 35.000 ft 020° 020° 4 kt METAR EHVK 100155Z AUTO 02004KT 9999 OVC350 16/13 Q1026 BLU
03:25
V
17 °C 10 km+ - 030° 030° 5 kt METAR EHVK 100125Z AUTO 03005KT 9999 SCT370 17/13 Q1026 BLU
02:55
V
17 °C 10 km+ - 030° 030° 5 kt METAR EHVK 100055Z AUTO 03005KT 9999 NCD 17/13 Q1026 BLU
02:25
V
18 °C 10 km+ - 030° 030° 4 kt METAR EHVK 100025Z AUTO 03004KT 9999 NCD 18/13 Q1027 BLU RMK CB INFO NOT AVBL
01:55
V
18 °C 10 km+ - 040° 040° 5 kt METAR EHVK 092355Z AUTO 04005KT 9999 SCT350 18/13 Q1027 BLU
01:25
V
19 °C 10 km+ 40.000 ft 040° 040° 6 kt METAR EHVK 092325Z AUTO 04006KT 020V080 9999 BKN400 19/13 Q1027 BLU
00:55
V
19 °C 10 km+ 38.000 ft 040° 040° 6 kt METAR EHVK 092255Z AUTO 04006KT 9999 BKN380 19/13 Q1027 BLU
00:25
V
20 °C 10 km+ 37.000 ft 030° 030° 6 kt METAR EHVK 092225Z AUTO 03006KT 9999 BKN370 20/13 Q1027 BLU

9 agosto 2022

Tempo Codice Tempo metereologico Temp. Vista Base nuvolosa Vento METAR/SPECI
23:55
V
20 °C 10 km+ - 030° 030° 7 kt METAR EHVK 092155Z AUTO 03007KT 360V060 9999 NCD 20/13 Q1027 BLU
23:25
V
21 °C 10 km+ - 020° 020° 7 kt METAR EHVK 092125Z AUTO 02007KT 9999 NCD 21/12 Q1026 BLU
22:55
V
21 °C 10 km+ - 030° 030° 5 kt METAR EHVK 092055Z AUTO 03005KT 360V060 9999 NCD 21/12 Q1026 BLU
22:25
V
22 °C 10 km+ - 030° 030° 5 kt METAR EHVK 092025Z AUTO 03005KT 9999 NCD 22/12 Q1026 BLU
21:55
V
22 °C 10 km+ - 030° 030° 5 kt METAR EHVK 091955Z AUTO 03005KT 9999 NCD 22/12 Q1026 BLU
21:25
V
23 °C 10 km+ - 030° 030° 5 kt METAR EHVK 091925Z AUTO 03005KT 9999 NCD 23/12 Q1026 BLU
20:55
V
24 °C 10 km+ - 030° 030° 5 kt METAR EHVK 091855Z AUTO 03005KT 9999 NCD 24/11 Q1026 BLU
20:25
V
25 °C 10 km+ - 030° 030° 7 kt METAR EHVK 091825Z AUTO 03007KT 9999 NCD 25/11 Q1026 BLU
19:55
V
26 °C 10 km+ - 030° 030° 8 kt METAR EHVK 091755Z AUTO 03008KT 9999 SCT360 26/11 Q1026 BLU
19:25
V
26 °C 10 km+ - 040° 040° 9 kt METAR EHVK 091725Z AUTO 04009KT 010V080 9999 NCD 26/11 Q1026 BLU
18:55
V
26 °C 10 km+ - 040° 040° 9 kt METAR EHVK 091655Z AUTO 04009KT 360V070 9999 SCT360 26/11 Q1026 BLU
18:25
V
27 °C 10 km+ - 030° 030° 9 kt METAR EHVK 091625Z AUTO 03009KT 340V060 9999 NCD 27/10 Q1026 BLU
17:55
V
27 °C 10 km+ 35.000 ft 030° 030° 9 kt METAR EHVK 091555Z AUTO 03009KT 350V060 9999 OVC350 27/11 Q1026 BLU
17:25
V
26 °C 10 km+ - 040° 040° 8 kt METAR EHVK 091525Z AUTO 04008KT 340V050 9999 NCD 26/11 Q1026 BLU
16:55
V
26 °C 10 km+ - 030° 030° 9 kt METAR EHVK 091455Z AUTO 03009KT 350V090 9999 NCD 26/11 Q1026 BLU
Dati più vecchi

Noi e le terze parti seguiamo il tuo comportamento in internet sul nostro sito web con i cookie. Se continui, riteniamo che tu sia d'accordo con la nostra politica sui cookie. Per saperne di più